sensor_id;sensor_type;location;lat;lon;timestamp;P1;durP1;ratioP1;P2;durP2;ratioP2
12228;SDS011;6177;52.402;9.800;2023-08-08T00:00:13;2.23;;;1.73;;
12228;SDS011;6177;52.402;9.800;2023-08-08T00:02:39;1.93;;;1.83;;
12228;SDS011;6177;52.402;9.800;2023-08-08T00:05:05;2.17;;;1.80;;
12228;SDS011;6177;52.402;9.800;2023-08-08T00:07:31;3.63;;;1.70;;
12228;SDS011;6177;52.402;9.800;2023-08-08T00:09:56;3.50;;;2.13;;
12228;SDS011;6177;52.402;9.800;2023-08-08T00:12:22;1.80;;;1.70;;
12228;SDS011;6177;52.402;9.800;2023-08-08T00:14:48;3.63;;;1.97;;
12228;SDS011;6177;52.402;9.800;2023-08-08T00:17:13;2.03;;;1.73;;
12228;SDS011;6177;52.402;9.800;2023-08-08T00:19:39;1.77;;;1.50;;
12228;SDS011;6177;52.402;9.800;2023-08-08T00:22:05;1.93;;;1.53;;
12228;SDS011;6177;52.402;9.800;2023-08-08T00:24:31;1.50;;;1.50;;
12228;SDS011;6177;52.402;9.800;2023-08-08T00:26:56;1.90;;;1.50;;
12228;SDS011;6177;52.402;9.800;2023-08-08T00:29:22;1.93;;;1.80;;
12228;SDS011;6177;52.402;9.800;2023-08-08T00:31:47;4.20;;;2.07;;
12228;SDS011;6177;52.402;9.800;2023-08-08T00:34:14;1.70;;;1.60;;
12228;SDS011;6177;52.402;9.800;2023-08-08T00:36:39;1.67;;;1.57;;
12228;SDS011;6177;52.402;9.800;2023-08-08T00:39:04;2.50;;;2.40;;
12228;SDS011;6177;52.402;9.800;2023-08-08T00:41:30;1.83;;;1.40;;
12228;SDS011;6177;52.402;9.800;2023-08-08T00:43:56;1.30;;;1.30;;
12228;SDS011;6177;52.402;9.800;2023-08-08T00:46:22;1.60;;;1.60;;
12228;SDS011;6177;52.402;9.800;2023-08-08T00:48:49;1.87;;;1.47;;
12228;SDS011;6177;52.402;9.800;2023-08-08T00:51:16;1.83;;;1.47;;
12228;SDS011;6177;52.402;9.800;2023-08-08T00:53:42;1.97;;;1.87;;
12228;SDS011;6177;52.402;9.800;2023-08-08T00:56:09;1.87;;;1.77;;
12228;SDS011;6177;52.402;9.800;2023-08-08T00:58:36;2.10;;;1.53;;
12228;SDS011;6177;52.402;9.800;2023-08-08T01:01:01;1.60;;;1.50;;
12228;SDS011;6177;52.402;9.800;2023-08-08T01:03:28;1.40;;;1.30;;
12228;SDS011;6177;52.402;9.800;2023-08-08T01:05:59;1.80;;;1.60;;
12228;SDS011;6177;52.402;9.800;2023-08-08T01:08:33;5.30;;;1.67;;
12228;SDS011;6177;52.402;9.800;2023-08-08T01:11:03;2.33;;;1.40;;
12228;SDS011;6177;52.402;9.800;2023-08-08T01:13:29;1.87;;;1.77;;
12228;SDS011;6177;52.402;9.800;2023-08-08T01:15:56;2.77;;;2.07;;
12228;SDS011;6177;52.402;9.800;2023-08-08T01:18:22;1.63;;;1.63;;
12228;SDS011;6177;52.402;9.800;2023-08-08T01:20:48;2.07;;;1.37;;
12228;SDS011;6177;52.402;9.800;2023-08-08T01:25:46;3.10;;;1.83;;
12228;SDS011;6177;52.402;9.800;2023-08-08T01:28:12;1.70;;;1.60;;
12228;SDS011;6177;52.402;9.800;2023-08-08T01:30:37;1.73;;;1.63;;
12228;SDS011;6177;52.402;9.800;2023-08-08T01:33:03;1.63;;;1.53;;
12228;SDS011;6177;52.402;9.800;2023-08-08T01:35:30;1.80;;;1.70;;
12228;SDS011;6177;52.402;9.800;2023-08-08T01:38:19;1.80;;;1.70;;
12228;SDS011;6177;52.402;9.800;2023-08-08T01:40:44;2.00;;;1.70;;
12228;SDS011;6177;52.402;9.800;2023-08-08T01:43:11;1.90;;;1.80;;
12228;SDS011;6177;52.402;9.800;2023-08-08T01:45:37;1.97;;;1.70;;
12228;SDS011;6177;52.402;9.800;2023-08-08T01:48:07;1.70;;;1.60;;
12228;SDS011;6177;52.402;9.800;2023-08-08T01:50:33;2.27;;;1.57;;
12228;SDS011;6177;52.402;9.800;2023-08-08T01:52:59;1.60;;;1.50;;
12228;SDS011;6177;52.402;9.800;2023-08-08T01:55:25;1.80;;;1.30;;
12228;SDS011;6177;52.402;9.800;2023-08-08T01:57:50;2.10;;;1.50;;
12228;SDS011;6177;52.402;9.800;2023-08-08T02:00:16;6.23;;;2.53;;
12228;SDS011;6177;52.402;9.800;2023-08-08T02:02:41;2.60;;;1.53;;
12228;SDS011;6177;52.402;9.800;2023-08-08T02:05:07;2.57;;;1.83;;
12228;SDS011;6177;52.402;9.800;2023-08-08T02:07:32;1.80;;;1.70;;
12228;SDS011;6177;52.402;9.800;2023-08-08T02:09:59;1.70;;;1.57;;
12228;SDS011;6177;52.402;9.800;2023-08-08T02:12:25;1.33;;;1.30;;
12228;SDS011;6177;52.402;9.800;2023-08-08T02:14:51;2.77;;;1.40;;
12228;SDS011;6177;52.402;9.800;2023-08-08T02:17:16;1.57;;;1.47;;
12228;SDS011;6177;52.402;9.800;2023-08-08T02:19:42;1.70;;;1.60;;
12228;SDS011;6177;52.402;9.800;2023-08-08T02:22:07;2.10;;;1.73;;
12228;SDS011;6177;52.402;9.800;2023-08-08T02:24:34;2.97;;;1.50;;
12228;SDS011;6177;52.402;9.800;2023-08-08T02:27:00;1.47;;;1.47;;
12228;SDS011;6177;52.402;9.800;2023-08-08T02:29:25;1.70;;;1.60;;
12228;SDS011;6177;52.402;9.800;2023-08-08T02:31:51;1.83;;;1.73;;
12228;SDS011;6177;52.402;9.800;2023-08-08T02:34:16;2.20;;;1.60;;
12228;SDS011;6177;52.402;9.800;2023-08-08T02:36:42;3.87;;;2.10;;
12228;SDS011;6177;52.402;9.800;2023-08-08T02:39:07;1.83;;;1.73;;
12228;SDS011;6177;52.402;9.800;2023-08-08T02:41:33;3.70;;;2.00;;
12228;SDS011;6177;52.402;9.800;2023-08-08T02:43:59;1.70;;;1.60;;
12228;SDS011;6177;52.402;9.800;2023-08-08T02:46:24;2.40;;;2.23;;
12228;SDS011;6177;52.402;9.800;2023-08-08T02:48:50;2.20;;;2.00;;
12228;SDS011;6177;52.402;9.800;2023-08-08T02:51:16;3.37;;;2.30;;
12228;SDS011;6177;52.402;9.800;2023-08-08T02:53:41;2.20;;;2.00;;
12228;SDS011;6177;52.402;9.800;2023-08-08T02:56:07;3.37;;;2.13;;
12228;SDS011;6177;52.402;9.800;2023-08-08T02:58:37;2.83;;;1.97;;
12228;SDS011;6177;52.402;9.800;2023-08-08T03:01:03;2.17;;;2.07;;
12228;SDS011;6177;52.402;9.800;2023-08-08T03:03:28;2.17;;;2.07;;
12228;SDS011;6177;52.402;9.800;2023-08-08T03:05:55;2.50;;;2.27;;
12228;SDS011;6177;52.402;9.800;2023-08-08T03:08:20;2.37;;;2.27;;
12228;SDS011;6177;52.402;9.800;2023-08-08T03:10:46;2.03;;;1.90;;
12228;SDS011;6177;52.402;9.800;2023-08-08T03:13:12;2.30;;;2.20;;
12228;SDS011;6177;52.402;9.800;2023-08-08T03:15:38;2.00;;;1.90;;
12228;SDS011;6177;52.402;9.800;2023-08-08T03:18:04;2.70;;;2.20;;
12228;SDS011;6177;52.402;9.800;2023-08-08T03:20:30;2.67;;;2.47;;
12228;SDS011;6177;52.402;9.800;2023-08-08T03:22:56;2.17;;;2.07;;
12228;SDS011;6177;52.402;9.800;2023-08-08T03:25:22;2.03;;;1.93;;
12228;SDS011;6177;52.402;9.800;2023-08-08T03:27:47;3.37;;;1.87;;
12228;SDS011;6177;52.402;9.800;2023-08-08T03:30:14;2.60;;;2.40;;
12228;SDS011;6177;52.402;9.800;2023-08-08T03:32:41;4.23;;;2.43;;
12228;SDS011;6177;52.402;9.800;2023-08-08T03:35:07;2.43;;;2.33;;
12228;SDS011;6177;52.402;9.800;2023-08-08T03:37:34;2.40;;;2.20;;
12228;SDS011;6177;52.402;9.800;2023-08-08T03:40:01;2.30;;;2.10;;
12228;SDS011;6177;52.402;9.800;2023-08-08T03:42:27;2.30;;;2.20;;
12228;SDS011;6177;52.402;9.800;2023-08-08T03:44:53;2.67;;;2.50;;
12228;SDS011;6177;52.402;9.800;2023-08-08T03:47:18;2.23;;;2.13;;
12228;SDS011;6177;52.402;9.800;2023-08-08T03:49:45;2.77;;;2.37;;
12228;SDS011;6177;52.402;9.800;2023-08-08T03:52:11;4.40;;;2.50;;
12228;SDS011;6177;52.402;9.800;2023-08-08T03:54:36;2.57;;;2.03;;
12228;SDS011;6177;52.402;9.800;2023-08-08T03:57:02;2.37;;;2.17;;
12228;SDS011;6177;52.402;9.800;2023-08-08T03:59:28;2.63;;;2.43;;
12228;SDS011;6177;52.402;9.800;2023-08-08T04:01:54;2.70;;;2.50;;
12228;SDS011;6177;52.402;9.800;2023-08-08T04:04:20;3.00;;;2.30;;
12228;SDS011;6177;52.402;9.800;2023-08-08T04:06:45;2.30;;;2.10;;
12228;SDS011;6177;52.402;9.800;2023-08-08T04:09:11;2.93;;;2.53;;
12228;SDS011;6177;52.402;9.800;2023-08-08T04:11:36;2.53;;;2.33;;
12228;SDS011;6177;52.402;9.800;2023-08-08T04:14:02;3.00;;;2.60;;
12228;SDS011;6177;52.402;9.800;2023-08-08T04:16:28;3.07;;;2.60;;
12228;SDS011;6177;52.402;9.800;2023-08-08T04:18:53;2.87;;;2.23;;
12228;SDS011;6177;52.402;9.800;2023-08-08T04:21:19;3.03;;;2.53;;
12228;SDS011;6177;52.402;9.800;2023-08-08T04:23:44;2.70;;;2.07;;
12228;SDS011;6177;52.402;9.800;2023-08-08T04:26:10;2.57;;;1.70;;
12228;SDS011;6177;52.402;9.800;2023-08-08T04:28:35;2.10;;;2.00;;
12228;SDS011;6177;52.402;9.800;2023-08-08T04:31:01;2.80;;;2.57;;
12228;SDS011;6177;52.402;9.800;2023-08-08T04:33:26;2.20;;;1.73;;
12228;SDS011;6177;52.402;9.800;2023-08-08T04:35:51;2.83;;;2.00;;
12228;SDS011;6177;52.402;9.800;2023-08-08T04:38:17;2.73;;;2.27;;
12228;SDS011;6177;52.402;9.800;2023-08-08T04:40:43;3.40;;;2.10;;
12228;SDS011;6177;52.402;9.800;2023-08-08T04:43:08;2.80;;;1.80;;
12228;SDS011;6177;52.402;9.800;2023-08-08T04:45:34;2.73;;;2.23;;
12228;SDS011;6177;52.402;9.800;2023-08-08T04:47:59;2.97;;;2.03;;
12228;SDS011;6177;52.402;9.800;2023-08-08T04:50:24;3.30;;;2.10;;
12228;SDS011;6177;52.402;9.800;2023-08-08T04:52:50;2.47;;;2.37;;
12228;SDS011;6177;52.402;9.800;2023-08-08T04:55:15;2.30;;;2.20;;
12228;SDS011;6177;52.402;9.800;2023-08-08T04:57:41;2.10;;;2.00;;
12228;SDS011;6177;52.402;9.800;2023-08-08T05:00:07;2.17;;;1.90;;
12228;SDS011;6177;52.402;9.800;2023-08-08T05:02:34;2.10;;;1.93;;
12228;SDS011;6177;52.402;9.800;2023-08-08T05:05:00;2.93;;;2.17;;
12228;SDS011;6177;52.402;9.800;2023-08-08T05:07:26;2.90;;;2.70;;
12228;SDS011;6177;52.402;9.800;2023-08-08T05:09:52;2.27;;;2.13;;
12228;SDS011;6177;52.402;9.800;2023-08-08T05:12:17;2.63;;;2.23;;
12228;SDS011;6177;52.402;9.800;2023-08-08T05:14:43;1.93;;;1.83;;
12228;SDS011;6177;52.402;9.800;2023-08-08T05:17:08;3.40;;;2.00;;
12228;SDS011;6177;52.402;9.800;2023-08-08T05:19:34;2.33;;;2.10;;
12228;SDS011;6177;52.402;9.800;2023-08-08T05:21:59;2.90;;;2.33;;
12228;SDS011;6177;52.402;9.800;2023-08-08T05:24:25;3.00;;;2.20;;
12228;SDS011;6177;52.402;9.800;2023-08-08T05:26:51;2.17;;;2.07;;
12228;SDS011;6177;52.402;9.800;2023-08-08T05:29:18;1.90;;;1.80;;
12228;SDS011;6177;52.402;9.800;2023-08-08T05:31:44;2.20;;;2.00;;
12228;SDS011;6177;52.402;9.800;2023-08-08T05:34:10;2.40;;;2.20;;
12228;SDS011;6177;52.402;9.800;2023-08-08T05:36:35;1.90;;;1.80;;
12228;SDS011;6177;52.402;9.800;2023-08-08T05:39:00;4.73;;;2.50;;
12228;SDS011;6177;52.402;9.800;2023-08-08T05:41:26;2.50;;;2.30;;
12228;SDS011;6177;52.402;9.800;2023-08-08T05:43:51;5.47;;;2.10;;
12228;SDS011;6177;52.402;9.800;2023-08-08T05:46:17;3.37;;;2.43;;
12228;SDS011;6177;52.402;9.800;2023-08-08T05:48:42;2.20;;;1.97;;
12228;SDS011;6177;52.402;9.800;2023-08-08T05:51:08;3.37;;;2.57;;
12228;SDS011;6177;52.402;9.800;2023-08-08T05:53:33;2.47;;;2.27;;
12228;SDS011;6177;52.402;9.800;2023-08-08T05:55:59;2.20;;;2.07;;
12228;SDS011;6177;52.402;9.800;2023-08-08T05:58:24;2.07;;;1.90;;
12228;SDS011;6177;52.402;9.800;2023-08-08T06:00:50;3.53;;;2.30;;
12228;SDS011;6177;52.402;9.800;2023-08-08T06:03:15;4.73;;;2.57;;
12228;SDS011;6177;52.402;9.800;2023-08-08T06:05:41;2.43;;;2.23;;
12228;SDS011;6177;52.402;9.800;2023-08-08T06:08:06;3.50;;;2.30;;
12228;SDS011;6177;52.402;9.800;2023-08-08T06:10:36;2.70;;;2.00;;
12228;SDS011;6177;52.402;9.800;2023-08-08T06:13:02;4.00;;;2.37;;
12228;SDS011;6177;52.402;9.800;2023-08-08T06:15:28;3.37;;;2.97;;
12228;SDS011;6177;52.402;9.800;2023-08-08T06:17:53;2.57;;;2.40;;
12228;SDS011;6177;52.402;9.800;2023-08-08T06:20:19;4.32;;;2.97;;
12228;SDS011;6177;52.402;9.800;2023-08-08T06:22:45;2.38;;;2.15;;
12228;SDS011;6177;52.402;9.800;2023-08-08T06:25:10;5.10;;;2.10;;
12228;SDS011;6177;52.402;9.800;2023-08-08T06:27:36;4.33;;;2.30;;
12228;SDS011;6177;52.402;9.800;2023-08-08T06:30:01;2.63;;;2.33;;
12228;SDS011;6177;52.402;9.800;2023-08-08T06:32:28;3.47;;;2.40;;
12228;SDS011;6177;52.402;9.800;2023-08-08T06:34:53;3.08;;;2.88;;
12228;SDS011;6177;52.402;9.800;2023-08-08T06:37:20;2.63;;;2.42;;
12228;SDS011;6177;52.402;9.800;2023-08-08T06:39:45;2.67;;;2.38;;
12228;SDS011;6177;52.402;9.800;2023-08-08T06:42:11;3.10;;;2.40;;
12228;SDS011;6177;52.402;9.800;2023-08-08T06:44:48;2.70;;;2.60;;
12228;SDS011;6177;52.402;9.800;2023-08-08T06:47:14;2.85;;;2.65;;
12228;SDS011;6177;52.402;9.800;2023-08-08T06:49:39;5.10;;;2.75;;
12228;SDS011;6177;52.402;9.800;2023-08-08T06:52:05;5.27;;;2.70;;
12228;SDS011;6177;52.402;9.800;2023-08-08T06:54:31;2.83;;;2.63;;
12228;SDS011;6177;52.402;9.800;2023-08-08T06:56:57;2.70;;;2.13;;
12228;SDS011;6177;52.402;9.800;2023-08-08T06:59:23;4.85;;;2.92;;
12228;SDS011;6177;52.402;9.800;2023-08-08T07:01:49;2.90;;;2.58;;
12228;SDS011;6177;52.402;9.800;2023-08-08T07:04:15;2.23;;;2.13;;
12228;SDS011;6177;52.402;9.800;2023-08-08T07:06:42;1.73;;;1.63;;
12228;SDS011;6177;52.402;9.800;2023-08-08T07:09:08;2.40;;;2.23;;
12228;SDS011;6177;52.402;9.800;2023-08-08T07:11:36;2.70;;;2.08;;
12228;SDS011;6177;52.402;9.800;2023-08-08T07:14:02;2.72;;;2.58;;
12228;SDS011;6177;52.402;9.800;2023-08-08T07:16:27;2.47;;;2.37;;
12228;SDS011;6177;52.402;9.800;2023-08-08T07:18:53;2.00;;;1.90;;
12228;SDS011;6177;52.402;9.800;2023-08-08T07:21:18;3.72;;;1.98;;
12228;SDS011;6177;52.402;9.800;2023-08-08T07:23:44;2.88;;;2.00;;
12228;SDS011;6177;52.402;9.800;2023-08-08T07:26:09;2.63;;;2.33;;
12228;SDS011;6177;52.402;9.800;2023-08-08T07:28:35;1.80;;;1.70;;
12228;SDS011;6177;52.402;9.800;2023-08-08T07:31:01;1.58;;;1.20;;
12228;SDS011;6177;52.402;9.800;2023-08-08T07:33:26;3.50;;;1.80;;
12228;SDS011;6177;52.402;9.800;2023-08-08T07:35:52;1.88;;;1.73;;
12228;SDS011;6177;52.402;9.800;2023-08-08T07:38:17;2.30;;;1.80;;
12228;SDS011;6177;52.402;9.800;2023-08-08T07:40:43;5.10;;;1.45;;
12228;SDS011;6177;52.402;9.800;2023-08-08T07:43:08;1.70;;;1.60;;
12228;SDS011;6177;52.402;9.800;2023-08-08T07:45:34;3.70;;;1.77;;
12228;SDS011;6177;52.402;9.800;2023-08-08T07:47:59;1.38;;;1.15;;
12228;SDS011;6177;52.402;9.800;2023-08-08T07:50:25;2.50;;;1.85;;
12228;SDS011;6177;52.402;9.800;2023-08-08T07:52:50;2.00;;;1.73;;
12228;SDS011;6177;52.402;9.800;2023-08-08T07:55:16;3.60;;;2.25;;
12228;SDS011;6177;52.402;9.800;2023-08-08T07:57:41;1.33;;;1.20;;
12228;SDS011;6177;52.402;9.800;2023-08-08T08:00:07;1.70;;;1.45;;
12228;SDS011;6177;52.402;9.800;2023-08-08T08:02:42;2.40;;;1.73;;
12228;SDS011;6177;52.402;9.800;2023-08-08T08:05:08;2.17;;;1.50;;
12228;SDS011;6177;52.402;9.800;2023-08-08T08:07:34;1.15;;;1.08;;
12228;SDS011;6177;52.402;9.800;2023-08-08T08:10:04;6.95;;;2.13;;
12228;SDS011;6177;52.402;9.800;2023-08-08T08:12:31;1.45;;;1.20;;
12228;SDS011;6177;52.402;9.800;2023-08-08T08:14:57;4.03;;;1.60;;
12228;SDS011;6177;52.402;9.800;2023-08-08T08:17:23;2.53;;;1.67;;
12228;SDS011;6177;52.402;9.800;2023-08-08T08:19:52;1.08;;;1.08;;
12228;SDS011;6177;52.402;9.800;2023-08-08T08:22:17;2.20;;;1.13;;
12228;SDS011;6177;52.402;9.800;2023-08-08T08:24:43;2.67;;;1.83;;
12228;SDS011;6177;52.402;9.800;2023-08-08T08:27:08;1.05;;;0.98;;
12228;SDS011;6177;52.402;9.800;2023-08-08T08:29:34;3.00;;;1.40;;
12228;SDS011;6177;52.402;9.800;2023-08-08T08:31:59;1.95;;;1.15;;
12228;SDS011;6177;52.402;9.800;2023-08-08T08:34:25;1.27;;;1.17;;
12228;SDS011;6177;52.402;9.800;2023-08-08T08:36:50;2.72;;;1.25;;
12228;SDS011;6177;52.402;9.800;2023-08-08T08:39:16;2.65;;;1.40;;
12228;SDS011;6177;52.402;9.800;2023-08-08T08:41:41;1.83;;;1.25;;
12228;SDS011;6177;52.402;9.800;2023-08-08T08:44:09;2.05;;;0.80;;
12228;SDS011;6177;52.402;9.800;2023-08-08T08:46:35;0.85;;;0.77;;
12228;SDS011;6177;52.402;9.800;2023-08-08T08:49:02;2.65;;;1.30;;
12228;SDS011;6177;52.402;9.800;2023-08-08T08:51:28;1.98;;;1.58;;
12228;SDS011;6177;52.402;9.800;2023-08-08T08:53:53;1.25;;;1.15;;
12228;SDS011;6177;52.402;9.800;2023-08-08T08:56:19;3.75;;;1.50;;
12228;SDS011;6177;52.402;9.800;2023-08-08T08:58:45;3.08;;;1.48;;
12228;SDS011;6177;52.402;9.800;2023-08-08T09:01:11;2.55;;;1.35;;
12228;SDS011;6177;52.402;9.800;2023-08-08T09:03:37;2.05;;;1.50;;
12228;SDS011;6177;52.402;9.800;2023-08-08T09:06:02;1.25;;;1.15;;
12228;SDS011;6177;52.402;9.800;2023-08-08T09:08:29;1.38;;;1.30;;
12228;SDS011;6177;52.402;9.800;2023-08-08T09:10:55;1.27;;;0.90;;
12228;SDS011;6177;52.402;9.800;2023-08-08T09:13:22;3.78;;;1.00;;
12228;SDS011;6177;52.402;9.800;2023-08-08T09:15:50;1.00;;;1.00;;
12228;SDS011;6177;52.402;9.800;2023-08-08T09:18:16;3.15;;;1.33;;
12228;SDS011;6177;52.402;9.800;2023-08-08T09:20:46;1.30;;;0.90;;
12228;SDS011;6177;52.402;9.800;2023-08-08T09:23:12;2.60;;;1.45;;
12228;SDS011;6177;52.402;9.800;2023-08-08T09:25:38;1.85;;;1.27;;
12228;SDS011;6177;52.402;9.800;2023-08-08T09:28:03;1.55;;;1.00;;
12228;SDS011;6177;52.402;9.800;2023-08-08T09:30:29;1.75;;;1.30;;
12228;SDS011;6177;52.402;9.800;2023-08-08T09:32:57;1.60;;;1.38;;
12228;SDS011;6177;52.402;9.800;2023-08-08T09:35:24;1.73;;;1.17;;
12228;SDS011;6177;52.402;9.800;2023-08-08T09:37:51;3.00;;;1.55;;
12228;SDS011;6177;52.402;9.800;2023-08-08T09:40:19;6.20;;;1.40;;
12228;SDS011;6177;52.402;9.800;2023-08-08T09:42:46;1.65;;;1.20;;
12228;SDS011;6177;52.402;9.800;2023-08-08T09:45:12;2.90;;;1.45;;
12228;SDS011;6177;52.402;9.800;2023-08-08T09:47:38;1.52;;;1.30;;
12228;SDS011;6177;52.402;9.800;2023-08-08T09:50:03;4.15;;;1.45;;
12228;SDS011;6177;52.402;9.800;2023-08-08T09:52:30;1.95;;;1.30;;
12228;SDS011;6177;52.402;9.800;2023-08-08T09:54:55;1.30;;;1.20;;
12228;SDS011;6177;52.402;9.800;2023-08-08T09:57:22;1.58;;;1.48;;
12228;SDS011;6177;52.402;9.800;2023-08-08T09:59:48;2.47;;;1.45;;
12228;SDS011;6177;52.402;9.800;2023-08-08T10:02:14;1.65;;;1.40;;
12228;SDS011;6177;52.402;9.800;2023-08-08T10:04:41;1.80;;;1.05;;
12228;SDS011;6177;52.402;9.800;2023-08-08T10:07:06;1.60;;;1.50;;
12228;SDS011;6177;52.402;9.800;2023-08-08T10:09:32;1.80;;;1.55;;
12228;SDS011;6177;52.402;9.800;2023-08-08T10:11:59;2.33;;;2.13;;
12228;SDS011;6177;52.402;9.800;2023-08-08T10:14:30;3.05;;;2.05;;
12228;SDS011;6177;52.402;9.800;2023-08-08T10:16:57;2.75;;;2.00;;
12228;SDS011;6177;52.402;9.800;2023-08-08T10:19:23;4.25;;;2.15;;
12228;SDS011;6177;52.402;9.800;2023-08-08T10:21:48;2.70;;;1.80;;
12228;SDS011;6177;52.402;9.800;2023-08-08T10:24:21;1.98;;;1.83;;
12228;SDS011;6177;52.402;9.800;2023-08-08T10:26:51;2.58;;;1.90;;
12228;SDS011;6177;52.402;9.800;2023-08-08T10:29:20;2.13;;;1.65;;
12228;SDS011;6177;52.402;9.800;2023-08-08T10:31:52;1.70;;;1.60;;
12228;SDS011;6177;52.402;9.800;2023-08-08T10:34:19;1.35;;;1.25;;
12228;SDS011;6177;52.402;9.800;2023-08-08T10:36:51;1.48;;;1.38;;
12228;SDS011;6177;52.402;9.800;2023-08-08T10:39:20;1.85;;;1.63;;
12228;SDS011;6177;52.402;9.800;2023-08-08T10:41:47;1.15;;;1.15;;
12228;SDS011;6177;52.402;9.800;2023-08-08T10:44:20;2.58;;;1.70;;
12228;SDS011;6177;52.402;9.800;2023-08-08T10:46:47;2.13;;;1.27;;
12228;SDS011;6177;52.402;9.800;2023-08-08T10:49:13;4.57;;;1.73;;
12228;SDS011;6177;52.402;9.800;2023-08-08T10:51:43;1.17;;;1.17;;
12228;SDS011;6177;52.402;9.800;2023-08-08T10:54:22;1.52;;;1.40;;
12228;SDS011;6177;52.402;9.800;2023-08-08T10:56:53;2.45;;;1.30;;
12228;SDS011;6177;52.402;9.800;2023-08-08T10:59:21;3.47;;;1.17;;
12228;SDS011;6177;52.402;9.800;2023-08-08T11:01:49;1.83;;;0.85;;
12228;SDS011;6177;52.402;9.800;2023-08-08T11:04:18;1.00;;;1.00;;
12228;SDS011;6177;52.402;9.800;2023-08-08T11:06:44;1.00;;;1.00;;
12228;SDS011;6177;52.402;9.800;2023-08-08T11:09:10;2.15;;;1.60;;
12228;SDS011;6177;52.402;9.800;2023-08-08T11:11:42;1.23;;;1.20;;
12228;SDS011;6177;52.402;9.800;2023-08-08T11:16:44;1.98;;;1.40;;
12228;SDS011;6177;52.402;9.800;2023-08-08T11:19:11;1.75;;;1.17;;
12228;SDS011;6177;52.402;9.800;2023-08-08T11:21:41;2.30;;;1.10;;
12228;SDS011;6177;52.402;9.800;2023-08-08T11:24:08;2.05;;;1.08;;
12228;SDS011;6177;52.402;9.800;2023-08-08T11:26:35;0.70;;;0.70;;
12228;SDS011;6177;52.402;9.800;2023-08-08T11:29:01;1.58;;;0.88;;
12228;SDS011;6177;52.402;9.800;2023-08-08T11:31:28;1.55;;;0.90;;
12228;SDS011;6177;52.402;9.800;2023-08-08T11:33:54;2.55;;;1.05;;
12228;SDS011;6177;52.402;9.800;2023-08-08T11:36:20;1.25;;;0.80;;
12228;SDS011;6177;52.402;9.800;2023-08-08T11:38:47;1.42;;;0.90;;
12228;SDS011;6177;52.402;9.800;2023-08-08T11:41:14;0.80;;;0.80;;
12228;SDS011;6177;52.402;9.800;2023-08-08T11:43:41;1.50;;;0.65;;
12228;SDS011;6177;52.402;9.800;2023-08-08T11:46:09;0.80;;;0.80;;
12228;SDS011;6177;52.402;9.800;2023-08-08T11:48:35;1.45;;;0.68;;
12228;SDS011;6177;52.402;9.800;2023-08-08T11:51:03;0.70;;;0.70;;
12228;SDS011;6177;52.402;9.800;2023-08-08T11:53:32;1.25;;;1.10;;
12228;SDS011;6177;52.402;9.800;2023-08-08T11:55:59;0.88;;;0.88;;
12228;SDS011;6177;52.402;9.800;2023-08-08T11:58:24;1.42;;;1.20;;
12228;SDS011;6177;52.402;9.800;2023-08-08T12:00:50;3.22;;;1.08;;
12228;SDS011;6177;52.402;9.800;2023-08-08T12:03:17;1.75;;;0.80;;
12228;SDS011;6177;52.402;9.800;2023-08-08T12:05:47;1.10;;;1.10;;
12228;SDS011;6177;52.402;9.800;2023-08-08T12:08:17;1.08;;;1.08;;
12228;SDS011;6177;52.402;9.800;2023-08-08T12:10:49;1.40;;;1.00;;
12228;SDS011;6177;52.402;9.800;2023-08-08T12:13:21;2.38;;;1.30;;
12228;SDS011;6177;52.402;9.800;2023-08-08T12:15:53;1.17;;;1.00;;
12228;SDS011;6177;52.402;9.800;2023-08-08T12:18:19;1.20;;;1.10;;
12228;SDS011;6177;52.402;9.800;2023-08-08T12:20:45;1.17;;;1.17;;
12228;SDS011;6177;52.402;9.800;2023-08-08T12:23:11;2.22;;;1.05;;
12228;SDS011;6177;52.402;9.800;2023-08-08T12:25:37;0.80;;;0.80;;
12228;SDS011;6177;52.402;9.800;2023-08-08T12:28:03;1.95;;;1.00;;
12228;SDS011;6177;52.402;9.800;2023-08-08T12:30:30;1.92;;;1.10;;
12228;SDS011;6177;52.402;9.800;2023-08-08T12:32:56;0.90;;;0.90;;
12228;SDS011;6177;52.402;9.800;2023-08-08T12:35:22;1.10;;;0.80;;
12228;SDS011;6177;52.402;9.800;2023-08-08T12:37:48;0.80;;;0.80;;
12228;SDS011;6177;52.402;9.800;2023-08-08T12:40:13;1.10;;;1.00;;
12228;SDS011;6177;52.402;9.800;2023-08-08T12:42:39;1.27;;;1.00;;
12228;SDS011;6177;52.402;9.800;2023-08-08T12:45:05;3.00;;;0.93;;
12228;SDS011;6177;52.402;9.800;2023-08-08T12:47:35;0.77;;;0.77;;
12228;SDS011;6177;52.402;9.800;2023-08-08T12:50:03;2.03;;;1.10;;
12228;SDS011;6177;52.402;9.800;2023-08-08T12:52:29;1.08;;;0.98;;
12228;SDS011;6177;52.402;9.800;2023-08-08T12:54:55;1.35;;;0.93;;
12228;SDS011;6177;52.402;9.800;2023-08-08T12:57:20;1.63;;;1.08;;
12228;SDS011;6177;52.402;9.800;2023-08-08T12:59:46;1.02;;;0.85;;
12228;SDS011;6177;52.402;9.800;2023-08-08T13:02:11;1.13;;;0.95;;
12228;SDS011;6177;52.402;9.800;2023-08-08T13:04:37;1.30;;;0.75;;
12228;SDS011;6177;52.402;9.800;2023-08-08T13:07:03;1.88;;;0.73;;
12228;SDS011;6177;52.402;9.800;2023-08-08T13:09:29;1.80;;;1.00;;
12228;SDS011;6177;52.402;9.800;2023-08-08T13:11:55;2.05;;;0.95;;
12228;SDS011;6177;52.402;9.800;2023-08-08T13:14:20;2.63;;;1.48;;
12228;SDS011;6177;52.402;9.800;2023-08-08T13:16:46;1.88;;;0.80;;
12228;SDS011;6177;52.402;9.800;2023-08-08T13:19:12;0.90;;;0.90;;
12228;SDS011;6177;52.402;9.800;2023-08-08T13:21:38;3.28;;;0.95;;
12228;SDS011;6177;52.402;9.800;2023-08-08T13:24:05;1.75;;;1.00;;
12228;SDS011;6177;52.402;9.800;2023-08-08T13:26:30;0.70;;;0.70;;
12228;SDS011;6177;52.402;9.800;2023-08-08T13:28:56;0.90;;;0.90;;
12228;SDS011;6177;52.402;9.800;2023-08-08T13:31:21;1.02;;;0.85;;
12228;SDS011;6177;52.402;9.800;2023-08-08T13:33:47;0.75;;;0.73;;
12228;SDS011;6177;52.402;9.800;2023-08-08T13:36:12;1.42;;;0.90;;
12228;SDS011;6177;52.402;9.800;2023-08-08T13:38:38;1.15;;;0.85;;
12228;SDS011;6177;52.402;9.800;2023-08-08T13:41:03;0.80;;;0.80;;
12228;SDS011;6177;52.402;9.800;2023-08-08T13:43:30;1.58;;;0.90;;
12228;SDS011;6177;52.402;9.800;2023-08-08T13:45:55;1.02;;;0.95;;
12228;SDS011;6177;52.402;9.800;2023-08-08T13:48:21;1.10;;;1.00;;
12228;SDS011;6177;52.402;9.800;2023-08-08T13:50:46;0.98;;;0.77;;
12228;SDS011;6177;52.402;9.800;2023-08-08T13:53:12;1.48;;;0.57;;
12228;SDS011;6177;52.402;9.800;2023-08-08T13:55:37;0.63;;;0.63;;
12228;SDS011;6177;52.402;9.800;2023-08-08T13:58:05;1.50;;;0.95;;
12228;SDS011;6177;52.402;9.800;2023-08-08T14:00:31;6.00;;;1.10;;
12228;SDS011;6177;52.402;9.800;2023-08-08T14:03:00;1.25;;;1.00;;
12228;SDS011;6177;52.402;9.800;2023-08-08T14:05:26;1.33;;;1.10;;
12228;SDS011;6177;52.402;9.800;2023-08-08T14:07:53;0.95;;;0.95;;
12228;SDS011;6177;52.402;9.800;2023-08-08T14:10:19;1.55;;;1.20;;
12228;SDS011;6177;52.402;9.800;2023-08-08T14:12:44;1.10;;;0.90;;
12228;SDS011;6177;52.402;9.800;2023-08-08T14:15:10;0.93;;;0.93;;
12228;SDS011;6177;52.402;9.800;2023-08-08T14:17:35;1.60;;;1.02;;
12228;SDS011;6177;52.402;9.800;2023-08-08T14:20:01;0.85;;;0.85;;
12228;SDS011;6177;52.402;9.800;2023-08-08T14:22:26;1.30;;;1.20;;
12228;SDS011;6177;52.402;9.800;2023-08-08T14:24:52;1.85;;;1.35;;
12228;SDS011;6177;52.402;9.800;2023-08-08T14:27:17;1.50;;;1.38;;
12228;SDS011;6177;52.402;9.800;2023-08-08T14:29:43;1.40;;;1.05;;
12228;SDS011;6177;52.402;9.800;2023-08-08T14:32:08;2.35;;;1.25;;
12228;SDS011;6177;52.402;9.800;2023-08-08T14:34:35;1.73;;;1.20;;
12228;SDS011;6177;52.402;9.800;2023-08-08T14:37:03;1.27;;;1.17;;
12228;SDS011;6177;52.402;9.800;2023-08-08T14:39:29;1.02;;;0.88;;
12228;SDS011;6177;52.402;9.800;2023-08-08T14:41:55;2.25;;;1.05;;
12228;SDS011;6177;52.402;9.800;2023-08-08T14:44:21;1.52;;;0.70;;
12228;SDS011;6177;52.402;9.800;2023-08-08T14:46:47;0.80;;;0.80;;
12228;SDS011;6177;52.402;9.800;2023-08-08T14:49:12;0.57;;;0.50;;
12228;SDS011;6177;52.402;9.800;2023-08-08T14:51:38;0.65;;;0.30;;
12228;SDS011;6177;52.402;9.800;2023-08-08T14:54:03;0.40;;;0.40;;
12228;SDS011;6177;52.402;9.800;2023-08-08T14:56:29;0.50;;;0.50;;
12228;SDS011;6177;52.402;9.800;2023-08-08T14:58:54;0.70;;;0.70;;